createdAt,value
2019-02-06T00:00:47.831Z,83.15
2019-02-06T00:01:47.834Z,83.15
2019-02-06T00:02:47.801Z,82.84
2019-02-06T00:03:47.806Z,83.15
2019-02-06T00:04:47.832Z,83.04
2019-02-06T00:05:47.786Z,83.04
2019-02-06T00:06:47.824Z,83.15
2019-02-06T00:07:47.770Z,82.84
2019-02-06T00:08:47.759Z,82.32
2019-02-06T00:09:47.788Z,82.35
2019-02-06T00:10:47.721Z,82.67
2019-02-06T00:11:47.742Z,83.15
2019-02-06T00:12:47.711Z,83.08
2019-02-06T00:13:47.719Z,82.87
2019-02-06T00:14:47.773Z,83.18
2019-02-06T00:15:47.711Z,83.18
2019-02-06T00:16:47.678Z,82.98
2019-02-06T00:17:47.664Z,83.08
2019-02-06T00:18:47.692Z,83.39
2019-02-06T00:19:47.658Z,82.98
2019-02-06T00:20:47.629Z,82.77
2019-02-06T00:21:47.664Z,83.08
2019-02-06T00:22:47.610Z,83.18
2019-02-06T00:23:47.591Z,83.18
2019-02-06T00:24:47.610Z,83.08
2019-02-06T00:25:47.579Z,83.08
2019-02-06T00:26:47.551Z,82.77
2019-02-06T00:27:47.663Z,83.22
2019-02-06T00:28:47.538Z,83.18
2019-02-06T00:29:47.534Z,83.22
2019-02-06T00:30:47.569Z,82.46
2019-02-06T00:31:47.508Z,83.43
2019-02-06T00:32:47.500Z,82.70
2019-02-06T00:33:47.477Z,82.81
2019-02-06T00:34:47.513Z,83.12
2019-02-06T00:35:47.461Z,83.22
2019-02-06T00:36:47.473Z,83.53
2019-02-06T00:37:47.446Z,82.70
2019-02-06T00:38:47.489Z,83.33
2019-02-06T00:39:47.462Z,83.12
2019-02-06T00:40:47.456Z,83.22
2019-02-06T00:41:47.408Z,83.22
2019-02-06T00:42:47.382Z,83.22
2019-02-06T00:43:47.371Z,83.22
2019-02-06T00:44:47.433Z,83.12
2019-02-06T00:45:47.365Z,82.18
2019-02-06T00:46:47.339Z,82.81
2019-02-06T00:47:47.364Z,82.60
2019-02-06T00:48:47.314Z,83.43
2019-02-06T00:49:47.294Z,83.22
2019-02-06T00:50:47.329Z,83.12
2019-02-06T00:51:47.349Z,83.26
2019-02-06T00:52:47.290Z,83.12
2019-02-06T00:53:47.309Z,83.68
2019-02-06T00:54:47.290Z,82.84
2019-02-06T00:55:47.265Z,82.74
2019-02-06T00:56:47.254Z,83.01
2019-02-06T00:57:47.345Z,83.26
2019-02-06T00:58:47.193Z,83.05
2019-02-06T00:59:47.201Z,84.09
2019-02-06T01:00:47.269Z,83.89
2019-02-06T01:01:47.187Z,84.09
2019-02-06T01:02:47.163Z,84.09
2019-02-06T01:03:47.156Z,84.05
2019-02-06T01:04:47.157Z,83.89
2019-02-06T01:05:47.139Z,83.37
2019-02-06T01:06:47.147Z,83.05
2019-02-06T01:07:47.116Z,83.16
2019-02-06T01:08:47.135Z,83.05
2019-02-06T01:09:47.122Z,82.74
2019-02-06T01:10:47.082Z,83.16
2019-02-06T01:11:47.081Z,83.16
2019-02-06T01:12:47.068Z,83.37
2019-02-06T01:13:47.056Z,83.26
2019-02-06T01:14:47.031Z,83.05
2019-02-06T01:15:47.076Z,83.05
2019-02-06T01:16:47.047Z,83.12
2019-02-06T01:17:47.062Z,83.01
2019-02-06T01:18:47.015Z,83.68
2019-02-06T01:19:47.003Z,83.16
2019-02-06T01:20:47.010Z,83.47
2019-02-06T01:21:46.956Z,83.47
2019-02-06T01:22:47.046Z,83.01
2019-02-06T01:23:46.967Z,83.68
2019-02-06T01:24:46.957Z,83.68
2019-02-06T01:25:46.936Z,83.37
2019-02-06T01:26:46.891Z,83.05
2019-02-06T01:27:46.875Z,83.16
2019-02-06T01:28:46.967Z,83.16
2019-02-06T01:29:46.871Z,83.99
2019-02-06T01:30:46.864Z,84.20
2019-02-06T01:31:46.888Z,83.16
2019-02-06T01:32:46.858Z,83.58
2019-02-06T01:33:46.865Z,83.47
2019-02-06T01:34:46.875Z,84.20
2019-02-06T01:35:49.906Z,83.26
2019-02-06T01:36:46.855Z,84.09
2019-02-06T01:37:46.791Z,83.05
2019-02-06T01:38:46.770Z,83.26
2019-02-06T01:39:46.884Z,83.05
2019-02-06T01:40:46.749Z,82.53
2019-02-06T01:41:46.757Z,83.16
2019-02-06T01:42:46.760Z,82.95
2019-02-06T01:43:46.722Z,83.26
2019-02-06T01:44:46.710Z,82.99
2019-02-06T01:45:46.731Z,83.37
2019-02-06T01:46:46.682Z,82.99
2019-02-06T01:47:46.657Z,83.16
2019-02-06T01:48:46.702Z,83.16
2019-02-06T01:49:46.653Z,83.05
2019-02-06T01:50:46.666Z,83.09
2019-02-06T01:51:47.418Z,83.20
2019-02-06T01:52:46.611Z,83.09
2019-02-06T01:53:46.596Z,83.40
2019-02-06T01:54:46.674Z,83.40
2019-02-06T01:55:46.606Z,83.40
2019-02-06T01:56:46.588Z,83.51
2019-02-06T01:57:46.569Z,83.20
2019-02-06T01:58:46.633Z,83.09
2019-02-06T01:59:46.558Z,83.30
2019-02-06T02:00:46.538Z,83.30
2019-02-06T02:01:46.521Z,83.20
2019-02-06T02:02:46.523Z,83.20
2019-02-06T02:03:46.485Z,83.30
2019-02-06T02:04:46.522Z,82.89
2019-02-06T02:05:46.485Z,83.09
2019-02-06T02:06:46.459Z,83.20
2019-02-06T02:07:46.466Z,83.30
2019-02-06T02:08:46.441Z,83.13
2019-02-06T02:09:46.448Z,83.20
2019-02-06T02:10:46.425Z,83.20
2019-02-06T02:11:46.444Z,83.09
2019-02-06T02:12:46.449Z,83.30
2019-02-06T02:13:46.397Z,83.30
2019-02-06T02:14:46.380Z,83.23
2019-02-06T02:15:46.431Z,83.30
2019-02-06T02:16:46.345Z,84.13
2019-02-06T02:17:46.462Z,84.23
2019-02-06T02:18:46.325Z,84.13
2019-02-06T02:19:46.337Z,83.75
2019-02-06T02:20:46.324Z,83.82
2019-02-06T02:21:46.310Z,84.06
2019-02-06T02:22:46.326Z,83.75
2019-02-06T02:23:46.277Z,83.86
2019-02-06T02:24:46.389Z,83.75
2019-02-06T02:25:46.355Z,83.61
2019-02-06T02:26:46.239Z,83.86
2019-02-06T02:27:46.236Z,83.86
2019-02-06T02:28:46.211Z,84.03
2019-02-06T02:29:46.223Z,83.82
2019-02-06T02:30:46.219Z,83.75
2019-02-06T02:31:46.271Z,83.75
2019-02-06T02:32:46.187Z,83.75
2019-02-06T02:33:46.179Z,83.75
2019-02-06T02:34:46.192Z,83.96
2019-02-06T02:35:46.157Z,84.06
2019-02-06T02:36:46.201Z,83.72
2019-02-06T02:37:46.152Z,83.86
2019-02-06T02:38:46.147Z,83.54
2019-02-06T02:39:46.115Z,83.54
2019-02-06T02:40:46.141Z,83.75
2019-02-06T02:41:46.093Z,83.75
2019-02-06T02:42:46.102Z,83.75
2019-02-06T02:43:46.075Z,83.65
2019-02-06T02:44:46.066Z,83.54
2019-02-06T02:45:46.056Z,83.86
2019-02-06T02:46:46.052Z,83.65
2019-02-06T02:47:46.026Z,83.65
2019-02-06T02:48:46.035Z,83.86
2019-02-06T02:49:45.985Z,83.75
2019-02-06T02:50:46.225Z,83.86
2019-02-06T02:51:46.014Z,83.86
2019-02-06T02:52:45.972Z,83.75
2019-02-06T02:53:45.975Z,83.75
2019-02-06T02:54:45.978Z,83.51
2019-02-06T02:55:45.940Z,83.65
2019-02-06T02:56:45.981Z,83.51
2019-02-06T02:57:45.918Z,83.54
2019-02-06T02:58:46.082Z,83.51
2019-02-06T02:59:45.898Z,83.96
2019-02-06T03:00:45.914Z,83.65
2019-02-06T03:01:45.936Z,83.51
2019-02-06T03:02:45.858Z,83.82
2019-02-06T03:03:45.899Z,83.72
2019-02-06T03:04:45.842Z,84.13
2019-02-06T03:05:45.915Z,83.92
2019-02-06T03:06:45.852Z,84.13
2019-02-06T03:07:45.832Z,84.17
2019-02-06T03:08:45.799Z,83.40
2019-02-06T03:09:45.811Z,83.13
2019-02-06T03:10:45.796Z,83.30
2019-02-06T03:11:45.997Z,83.13
2019-02-06T03:12:45.788Z,83.20
2019-02-06T03:13:45.734Z,83.30
2019-02-06T03:14:45.733Z,83.61
2019-02-06T03:15:45.720Z,83.34
2019-02-06T03:16:45.727Z,83.30
2019-02-06T03:17:45.737Z,83.51
2019-02-06T03:18:45.720Z,83.75
2019-02-06T03:19:45.676Z,82.99
2019-02-06T03:20:45.690Z,83.13
2019-02-06T03:21:45.674Z,83.13
2019-02-06T03:22:45.704Z,83.09
2019-02-06T03:23:45.652Z,83.09
2019-02-06T03:24:45.621Z,83.61
2019-02-06T03:25:45.604Z,83.20
2019-02-06T03:26:45.625Z,83.20
2019-02-06T03:27:45.585Z,83.30
2019-02-06T03:28:45.578Z,83.09
2019-02-06T03:29:45.593Z,82.89
2019-02-06T03:30:45.616Z,82.89
2019-02-06T03:31:45.539Z,83.09
2019-02-06T03:32:45.587Z,83.20
2019-02-06T03:33:45.518Z,83.20
2019-02-06T03:34:45.509Z,83.30
2019-02-06T03:35:45.548Z,83.30
2019-02-06T03:36:45.496Z,83.20
2019-02-06T03:37:45.534Z,82.99
2019-02-06T03:38:45.462Z,83.09
2019-02-06T03:39:45.485Z,83.30
2019-02-06T03:40:45.454Z,83.20
2019-02-06T03:41:45.438Z,83.40
2019-02-06T03:42:45.427Z,83.09
2019-02-06T03:43:45.446Z,83.09
2019-02-06T03:44:45.427Z,82.99
2019-02-06T03:45:45.371Z,83.30
2019-02-06T03:46:45.398Z,83.05
2019-02-06T03:47:45.377Z,83.30
2019-02-06T03:48:45.354Z,83.20
2019-02-06T03:49:45.437Z,83.30
2019-02-06T03:50:45.335Z,83.30
2019-02-06T03:51:45.355Z,83.20
2019-02-06T03:52:45.339Z,82.99
2019-02-06T03:53:45.359Z,82.99
2019-02-06T03:54:45.451Z,82.89
2019-02-06T03:55:45.326Z,83.20
2019-02-06T03:56:45.268Z,83.09
2019-02-06T03:57:45.265Z,82.89
2019-02-06T03:58:45.312Z,83.20
2019-02-06T03:59:45.238Z,82.57
2019-02-06T04:00:45.204Z,83.20
2019-02-06T04:01:45.217Z,82.68
2019-02-06T04:02:45.233Z,83.20
2019-02-06T04:03:45.225Z,83.09
2019-02-06T04:04:45.180Z,83.30
2019-02-06T04:05:45.149Z,83.82
2019-02-06T04:06:53.538Z,82.84
2019-02-06T04:07:46.145Z,84.03
2019-02-06T04:08:45.132Z,83.51
2019-02-06T04:09:45.212Z,83.09
2019-02-06T04:10:45.132Z,83.30
2019-02-06T04:11:45.122Z,82.68
2019-02-06T04:12:45.094Z,83.30
2019-02-06T04:13:45.054Z,83.40
2019-02-06T04:14:45.176Z,83.30
2019-02-06T04:15:45.088Z,82.78
2019-02-06T04:16:45.130Z,83.09
2019-02-06T04:17:45.047Z,83.30
2019-02-06T04:18:45.045Z,83.30
2019-02-06T04:19:45.286Z,82.68
2019-02-06T04:20:44.999Z,83.09
2019-02-06T04:23:04.955Z,82.57
2019-02-06T04:24:01.801Z,83.09
2019-02-06T04:25:01.880Z,83.09
2019-02-06T04:26:01.781Z,82.89
2019-02-06T04:27:01.786Z,82.99
2019-02-06T04:28:01.788Z,83.13
2019-02-06T04:29:01.789Z,82.99
2019-02-06T04:30:01.756Z,83.23
2019-02-06T04:31:01.724Z,82.99
2019-02-06T04:32:01.758Z,83.20
2019-02-06T04:33:01.708Z,83.34
2019-02-06T04:34:01.702Z,83.23
2019-02-06T04:35:01.691Z,83.30
2019-02-06T04:36:01.717Z,83.20
2019-02-06T04:37:06.638Z,82.78
2019-02-06T04:38:02.682Z,82.57
2019-02-06T04:39:01.650Z,82.30
2019-02-06T04:40:01.636Z,83.09
2019-02-06T04:41:01.624Z,82.89
2019-02-06T04:42:01.613Z,82.89
2019-02-06T04:43:01.595Z,82.68
2019-02-06T04:44:01.612Z,82.68
2019-02-06T04:45:01.608Z,82.57
2019-02-06T04:46:01.575Z,82.40
2019-02-06T04:47:01.582Z,82.36
2019-02-06T04:48:01.536Z,82.57
2019-02-06T04:49:01.540Z,82.51
2019-02-06T04:50:01.521Z,82.71
2019-02-06T04:51:01.551Z,82.89
2019-02-06T04:52:01.517Z,82.92
2019-02-06T04:53:01.522Z,82.89
2019-02-06T04:54:01.485Z,82.89
2019-02-06T04:55:01.470Z,82.82
2019-02-06T04:56:01.517Z,82.71
2019-02-06T04:57:01.442Z,82.82
2019-02-06T04:58:01.411Z,82.61
2019-02-06T04:59:01.465Z,82.30
2019-02-06T05:00:01.455Z,82.82
2019-02-06T05:01:01.395Z,82.89
2019-02-06T05:02:01.391Z,82.92
2019-02-06T05:03:01.421Z,82.92
2019-02-06T05:04:01.371Z,82.61
2019-02-06T05:05:01.405Z,82.82
2019-02-06T05:06:01.352Z,82.82
2019-02-06T05:07:01.329Z,82.71
2019-02-06T05:08:01.318Z,82.92
2019-02-06T05:09:01.309Z,82.82
2019-02-06T05:10:01.304Z,82.30
2019-02-06T05:11:01.358Z,81.98
2019-02-06T05:12:01.291Z,81.98
2019-02-06T05:13:01.248Z,82.20
2019-02-06T05:14:01.234Z,82.20
2019-02-06T05:15:01.272Z,82.13
2019-02-06T05:16:01.217Z,82.51
2019-02-06T05:17:01.287Z,82.20
2019-02-06T05:18:01.218Z,82.82
2019-02-06T05:19:01.226Z,82.82
2019-02-06T05:20:01.188Z,82.92
2019-02-06T05:21:01.223Z,82.92
2019-02-06T05:22:01.155Z,82.09
2019-02-06T05:23:01.196Z,82.30
2019-02-06T05:24:01.160Z,82.30
2019-02-06T05:25:01.134Z,82.61
2019-02-06T05:26:01.195Z,82.20
2019-02-06T05:27:01.130Z,82.71
2019-02-06T05:28:01.139Z,82.40
2019-02-06T05:29:01.171Z,82.61
2019-02-06T05:30:01.066Z,82.82
2019-02-06T05:31:01.112Z,82.71
2019-02-06T05:32:01.138Z,82.36
2019-02-06T05:33:01.096Z,82.20
2019-02-06T05:34:01.114Z,82.09
2019-02-06T05:35:01.035Z,81.84
2019-02-06T05:36:01.072Z,81.74
2019-02-06T05:37:01.108Z,82.15
2019-02-06T05:38:01.025Z,81.57
2019-02-06T05:39:01.100Z,81.43
2019-02-06T05:40:01.000Z,81.67
2019-02-06T05:41:00.979Z,81.63
2019-02-06T05:42:01.001Z,81.74
2019-02-06T05:43:00.962Z,81.53
2019-02-06T05:44:00.921Z,81.57
2019-02-06T05:45:00.942Z,81.22
2019-02-06T05:46:00.923Z,81.67
2019-02-06T05:47:01.044Z,81.43
2019-02-06T05:48:00.887Z,81.63
2019-02-06T05:49:00.893Z,81.63
2019-02-06T05:50:00.905Z,81.67
2019-02-06T05:51:00.870Z,81.43
2019-02-06T05:52:00.838Z,81.63
2019-02-06T05:53:00.852Z,81.74
2019-02-06T05:54:00.815Z,81.84
2019-02-06T05:55:04.278Z,81.74
2019-02-06T05:56:00.793Z,81.32
2019-02-06T05:57:00.819Z,81.67
2019-02-06T05:58:00.790Z,81.74
2019-02-06T05:59:00.770Z,81.63
2019-02-06T06:00:01.225Z,81.43
2019-02-06T06:01:00.736Z,81.95
2019-02-06T06:02:00.842Z,81.88
2019-02-06T06:03:00.737Z,81.95
2019-02-06T06:04:00.722Z,81.22
2019-02-06T06:05:00.713Z,81.67
2019-02-06T06:06:00.722Z,81.43
2019-02-06T06:07:00.694Z,81.26
2019-02-06T06:08:00.689Z,81.98
2019-02-06T06:09:00.646Z,81.98
2019-02-06T06:10:00.688Z,81.88
2019-02-06T06:11:00.646Z,81.22
2019-02-06T06:12:00.676Z,81.74
2019-02-06T06:13:00.601Z,81.95
2019-02-06T06:14:00.571Z,81.77
2019-02-06T06:15:00.585Z,81.84
2019-02-06T06:16:00.549Z,81.74
2019-02-06T06:17:00.548Z,81.43
2019-02-06T06:18:00.591Z,81.74
2019-02-06T06:19:00.533Z,81.77
2019-02-06T06:20:00.526Z,81.32
2019-02-06T06:21:00.517Z,81.32
2019-02-06T06:22:00.538Z,81.26
2019-02-06T06:23:00.485Z,81.01
2019-02-06T06:24:00.473Z,81.05
2019-02-06T06:25:00.463Z,80.91
2019-02-06T06:26:00.458Z,81.01
2019-02-06T06:27:00.448Z,80.49
2019-02-06T06:28:00.510Z,81.22
2019-02-06T06:29:00.418Z,81.32
2019-02-06T06:30:00.487Z,80.70
2019-02-06T06:31:00.402Z,80.80
2019-02-06T06:32:00.390Z,80.70
2019-02-06T06:33:00.404Z,80.80
2019-02-06T06:34:00.361Z,80.70
2019-02-06T06:35:00.366Z,80.80
2019-02-06T06:36:00.343Z,80.70
2019-02-06T06:37:00.332Z,80.29
2019-02-06T06:38:02.214Z,80.29
2019-02-06T06:39:00.299Z,80.18
2019-02-06T06:40:00.430Z,80.18
2019-02-06T06:41:00.286Z,80.60
2019-02-06T06:42:00.277Z,80.91
2019-02-06T06:43:00.299Z,80.84
2019-02-06T06:44:00.296Z,80.74
2019-02-06T06:45:00.246Z,81.36
2019-02-06T06:46:00.251Z,80.94
2019-02-06T06:47:00.203Z,80.74
2019-02-06T06:48:00.293Z,81.15
2019-02-06T06:49:00.268Z,81.46
2019-02-06T06:50:00.358Z,81.05
2019-02-06T06:51:00.174Z,80.49
2019-02-06T06:52:00.177Z,80.22
2019-02-06T06:53:00.236Z,80.49
2019-02-06T06:54:00.150Z,80.80
2019-02-06T06:55:00.229Z,80.80
2019-02-06T06:56:00.125Z,80.74
2019-02-06T06:57:00.115Z,80.70
2019-02-06T06:58:00.175Z,80.70
2019-02-06T06:59:00.148Z,80.39
2019-02-06T07:00:00.133Z,80.29
2019-02-06T07:01:00.084Z,80.18
2019-02-06T07:02:00.096Z,79.76
2019-02-06T07:03:00.088Z,80.08
2019-02-06T07:04:00.040Z,79.49
2019-02-06T07:05:00.011Z,80.01
2019-02-06T07:06:00.010Z,79.87
2019-02-06T07:07:00.035Z,80.01
2019-02-06T07:08:09.231Z,79.97
2019-02-06T07:09:01.005Z,80.18
2019-02-06T07:09:59.964Z,80.18
2019-02-06T07:10:59.958Z,80.32
2019-02-06T07:11:59.974Z,79.55
2019-02-06T07:13:00.004Z,79.55
2019-02-06T07:13:59.958Z,79.91
2019-02-06T07:15:00.434Z,79.87
2019-02-06T07:16:00.487Z,79.35
2019-02-06T07:16:59.892Z,79.35
2019-02-06T07:17:59.890Z,79.45
2019-02-06T07:18:59.889Z,79.59
2019-02-06T07:19:59.868Z,79.91
2019-02-06T07:21:01.592Z,79.87
2019-02-06T07:21:59.814Z,79.55
2019-02-06T07:22:59.851Z,79.45
2019-02-06T07:23:59.821Z,79.49
2019-02-06T07:24:59.837Z,79.55
2019-02-06T07:25:59.786Z,79.14
2019-02-06T07:26:59.757Z,79.35
2019-02-06T07:27:59.766Z,79.91
2019-02-06T07:28:59.766Z,79.87
2019-02-06T07:29:59.825Z,79.97
2019-02-06T07:30:59.742Z,79.59
2019-02-06T07:31:59.732Z,80.08
2019-02-06T07:32:59.727Z,80.08
2019-02-06T07:33:59.730Z,79.87
2019-02-06T07:34:59.724Z,79.97
2019-02-06T07:35:59.676Z,79.55
2019-02-06T07:36:59.686Z,79.66
2019-02-06T07:37:59.672Z,79.55
2019-02-06T07:38:59.641Z,79.97
2019-02-06T07:39:59.751Z,79.76
2019-02-06T07:40:59.658Z,79.76
2019-02-06T07:41:59.657Z,79.31
2019-02-06T07:42:59.643Z,79.66
2019-02-06T07:43:59.596Z,79.45
2019-02-06T07:44:59.626Z,79.21
2019-02-06T07:45:59.613Z,79.55
2019-02-06T07:46:59.556Z,79.21
2019-02-06T07:47:59.545Z,79.03
2019-02-06T07:48:59.576Z,78.89
2019-02-06T07:49:59.553Z,78.69
2019-02-06T07:50:59.516Z,79.10
2019-02-06T07:51:59.527Z,79.00
2019-02-06T07:52:59.575Z,78.69
2019-02-06T07:53:59.476Z,78.86
2019-02-06T07:54:59.464Z,79.00
2019-02-06T07:55:59.494Z,79.00
2019-02-06T07:56:59.442Z,78.48
2019-02-06T07:57:59.497Z,78.79
2019-02-06T07:58:59.422Z,78.58
2019-02-06T07:59:59.475Z,78.65
2019-02-06T08:00:59.436Z,78.34
2019-02-06T08:01:59.369Z,78.96
2019-02-06T08:02:59.376Z,78.55
2019-02-06T08:03:59.367Z,78.34
2019-02-06T08:04:59.395Z,78.23
2019-02-06T08:05:59.378Z,78.65
2019-02-06T08:06:59.426Z,78.65
2019-02-06T08:07:59.325Z,78.65
2019-02-06T08:08:59.292Z,78.65
2019-02-06T08:09:59.301Z,78.03
2019-02-06T08:10:59.322Z,77.92
2019-02-06T08:11:59.349Z,78.13
2019-02-06T08:12:59.269Z,77.72
2019-02-06T08:13:59.276Z,78.13
2019-02-06T08:14:59.270Z,77.92
2019-02-06T08:15:59.242Z,77.82
2019-02-06T08:16:59.206Z,77.82
2019-02-06T08:17:59.303Z,77.68
2019-02-06T08:18:59.229Z,77.68
2019-02-06T08:19:59.215Z,77.16
2019-02-06T08:20:59.191Z,77.06
2019-02-06T08:21:59.198Z,77.26
2019-02-06T08:22:59.173Z,77.26
2019-02-06T08:23:59.214Z,77.26
2019-02-06T08:24:59.118Z,77.26
2019-02-06T08:25:59.101Z,77.16
2019-02-06T08:26:59.124Z,76.95
2019-02-06T08:27:59.137Z,77.16
2019-02-06T08:28:59.093Z,77.37
2019-02-06T08:29:59.113Z,77.26
2019-02-06T08:30:59.091Z,77.16
2019-02-06T08:31:59.082Z,76.95
2019-02-06T08:32:59.056Z,76.92
2019-02-06T08:33:59.065Z,76.61
2019-02-06T08:34:59.004Z,76.81
2019-02-06T08:35:59.017Z,76.71
2019-02-06T08:36:59.060Z,76.50
2019-02-06T08:37:58.996Z,76.50
2019-02-06T08:38:58.998Z,76.50
2019-02-06T08:39:58.971Z,76.29
2019-02-06T08:40:58.965Z,76.61
2019-02-06T08:41:59.061Z,76.50
2019-02-06T08:42:58.958Z,76.29
2019-02-06T08:44:01.734Z,76.37
2019-02-06T08:44:58.912Z,76.40
2019-02-06T08:45:58.945Z,76.61
2019-02-06T08:46:58.906Z,76.26
2019-02-06T08:47:58.922Z,75.85
2019-02-06T08:48:59.018Z,76.06
2019-02-06T08:49:58.872Z,76.37
2019-02-06T08:50:58.863Z,76.37
2019-02-06T08:51:58.856Z,75.54
2019-02-06T08:52:59.053Z,75.43
2019-02-06T08:53:58.887Z,75.23
2019-02-06T08:54:58.802Z,75.33
2019-02-06T08:55:58.899Z,75.33
2019-02-06T08:56:58.823Z,75.02
2019-02-06T08:57:58.757Z,74.29
2019-02-06T08:58:58.805Z,74.81
2019-02-06T08:59:58.784Z,74.77
2019-02-06T09:00:58.790Z,74.57
2019-02-06T09:01:58.735Z,74.46
2019-02-06T09:02:58.757Z,74.36
2019-02-06T09:03:58.707Z,74.67
2019-02-06T09:04:58.704Z,74.46
2019-02-06T09:05:58.702Z,74.36
2019-02-06T09:06:58.734Z,74.46
2019-02-06T09:07:58.715Z,74.46
2019-02-06T09:08:59.998Z,74.36
2019-02-06T09:09:58.638Z,74.46
2019-02-06T09:10:58.619Z,74.63
2019-02-06T09:11:58.632Z,74.46
2019-02-06T09:12:58.657Z,74.53
2019-02-06T09:13:58.632Z,73.91
2019-02-06T09:14:58.602Z,74.53
2019-02-06T09:15:58.561Z,74.32
2019-02-06T09:16:58.573Z,74.53
2019-02-06T09:17:58.688Z,74.63
2019-02-06T09:18:58.571Z,74.60
2019-02-06T09:19:58.522Z,72.84
2019-02-06T09:20:58.584Z,72.84
2019-02-06T09:21:58.492Z,72.74
2019-02-06T09:22:58.536Z,72.74
2019-02-06T09:23:58.532Z,73.25
2019-02-06T09:24:58.462Z,72.42
2019-02-06T09:25:58.473Z,72.94
2019-02-06T09:26:58.460Z,73.36
2019-02-06T09:27:58.761Z,73.25
2019-02-06T09:28:58.418Z,73.05
2019-02-06T09:29:58.430Z,72.32
2019-02-06T09:30:58.473Z,72.42
2019-02-06T09:31:59.420Z,72.63
2019-02-06T09:32:58.411Z,72.94
2019-02-06T09:33:58.361Z,72.60
2019-02-06T09:34:58.416Z,72.29
2019-02-06T09:35:58.363Z,72.08
2019-02-06T09:36:58.380Z,72.19
2019-02-06T09:37:58.336Z,72.29
2019-02-06T09:38:58.331Z,71.88
2019-02-06T09:39:58.297Z,71.56
2019-02-06T09:40:58.295Z,71.88
2019-02-06T09:41:58.297Z,70.81
2019-02-06T09:42:58.320Z,70.84
2019-02-06T09:43:58.457Z,71.56
2019-02-06T09:44:58.260Z,71.01
2019-02-06T09:45:58.298Z,71.63
2019-02-06T09:46:58.221Z,71.77
2019-02-06T09:47:58.269Z,71.53
2019-02-06T09:48:58.257Z,71.84
2019-02-06T09:49:58.197Z,71.63
2019-02-06T09:50:58.250Z,71.43
2019-02-06T09:51:58.240Z,71.73
2019-02-06T09:52:58.172Z,71.73
2019-02-06T09:53:58.231Z,71.94
2019-02-06T09:54:58.164Z,71.63
2019-02-06T09:55:58.134Z,71.73
2019-02-06T09:56:58.134Z,71.33
2019-02-06T09:57:58.119Z,71.19
2019-02-06T09:58:58.082Z,71.12
2019-02-06T09:59:58.121Z,70.98
2019-02-06T10:00:58.088Z,70.87
2019-02-06T10:01:58.084Z,71.29
2019-02-06T10:02:58.068Z,70.67
2019-02-06T10:03:58.069Z,70.77
2019-02-06T10:04:58.048Z,70.57
2019-02-06T10:05:58.052Z,70.57
2019-02-06T10:06:58.013Z,70.67
2019-02-06T10:07:58.036Z,69.84
2019-02-06T10:08:58.001Z,70.57
2019-02-06T10:09:58.146Z,70.57
2019-02-06T10:10:58.208Z,70.15
2019-02-06T10:11:57.963Z,69.95
2019-02-06T10:12:58.224Z,69.84
2019-02-06T10:13:57.941Z,69.84
2019-02-06T10:14:57.913Z,69.53
2019-02-06T10:15:57.921Z,69.43
2019-02-06T10:16:57.969Z,69.95
2019-02-06T10:17:57.890Z,69.95
2019-02-06T10:18:57.866Z,69.84
2019-02-06T10:19:58.171Z,69.74
2019-02-06T10:20:57.942Z,69.84
2019-02-06T10:21:57.897Z,69.74
2019-02-06T10:22:57.874Z,69.53
2019-02-06T10:23:57.836Z,68.91
2019-02-06T10:24:57.803Z,69.12
2019-02-06T10:25:57.807Z,69.01
2019-02-06T10:26:57.831Z,69.01
2019-02-06T10:27:57.793Z,69.64
2019-02-06T10:28:57.777Z,69.53
2019-02-06T10:29:57.757Z,69.64
2019-02-06T10:30:57.752Z,69.29
2019-02-06T10:31:57.771Z,69.81
2019-02-06T10:32:57.737Z,69.64
2019-02-06T10:33:57.730Z,69.81
2019-02-06T10:34:57.815Z,69.53
2019-02-06T10:35:57.772Z,69.71
2019-02-06T10:36:57.713Z,69.81
2019-02-06T10:37:57.740Z,69.60
2019-02-06T10:38:57.662Z,68.57
2019-02-06T10:39:58.703Z,69.09
2019-02-06T10:40:57.665Z,68.98
2019-02-06T10:41:57.719Z,69.50
2019-02-06T10:42:57.672Z,69.09
2019-02-06T10:43:57.635Z,69.60
2019-02-06T10:44:57.601Z,69.26
2019-02-06T10:45:57.586Z,68.67
2019-02-06T10:46:57.562Z,68.98
2019-02-06T10:47:57.604Z,68.54
2019-02-06T10:48:57.598Z,68.54
2019-02-06T10:49:57.551Z,68.95
2019-02-06T10:50:58.389Z,69.06
2019-02-06T10:51:57.520Z,68.95
2019-02-06T10:52:57.577Z,68.85
2019-02-06T10:53:57.502Z,68.23
2019-02-06T10:54:57.469Z,68.12
2019-02-06T10:55:57.481Z,67.82
2019-02-06T10:56:57.543Z,67.91
2019-02-06T10:57:57.433Z,67.82
2019-02-06T10:58:57.515Z,68.02
2019-02-06T10:59:57.442Z,67.71
2019-02-06T11:00:57.424Z,68.23
2019-02-06T11:01:57.406Z,68.12
2019-02-06T11:02:57.444Z,68.74
2019-02-06T11:03:57.534Z,67.82
2019-02-06T11:04:57.362Z,67.68
2019-02-06T11:05:57.370Z,67.06
2019-02-06T11:06:57.398Z,67.58
2019-02-06T11:07:57.332Z,68.12
2019-02-06T11:08:57.344Z,67.78
2019-02-06T11:09:57.339Z,67.99
2019-02-06T11:10:57.325Z,67.88
2019-02-06T11:11:57.307Z,67.58
2019-02-06T11:12:57.298Z,67.88
2019-02-06T11:13:57.274Z,67.78
2019-02-06T11:14:57.334Z,67.06
2019-02-06T11:15:57.287Z,66.75
2019-02-06T11:16:57.379Z,66.85
2019-02-06T11:17:57.473Z,66.75
2019-02-06T11:18:57.228Z,66.82
2019-02-06T11:19:57.234Z,66.75
2019-02-06T11:20:57.215Z,67.06
2019-02-06T11:21:57.202Z,66.85
2019-02-06T11:22:57.166Z,66.51
2019-02-06T11:23:57.218Z,66.61
2019-02-06T11:24:57.323Z,66.72
2019-02-06T11:25:57.209Z,66.30
2019-02-06T11:26:57.172Z,66.41
2019-02-06T11:27:57.155Z,66.72
2019-02-06T11:28:57.132Z,67.75
2019-02-06T11:29:57.155Z,66.61
2019-02-06T11:30:57.454Z,66.61
2019-02-06T11:31:57.070Z,66.61
2019-02-06T11:32:57.082Z,67.13
2019-02-06T11:33:57.099Z,67.54
2019-02-06T11:34:57.098Z,67.34
2019-02-06T11:35:57.030Z,66.72
2019-02-06T11:36:57.065Z,66.79
2019-02-06T11:37:57.004Z,67.03
2019-02-06T11:38:57.043Z,67.44
2019-02-06T11:39:58.270Z,67.65
2019-02-06T11:40:57.035Z,67.65
2019-02-06T11:41:56.973Z,67.65
2019-02-06T11:42:56.994Z,67.65
2019-02-06T11:43:57.005Z,67.44
2019-02-06T11:44:56.977Z,68.06
2019-02-06T11:45:56.959Z,68.13
2019-02-06T11:46:56.927Z,67.85
2019-02-06T11:47:56.946Z,68.24
2019-02-06T11:48:56.887Z,68.27
2019-02-06T11:49:56.930Z,68.24
2019-02-06T11:50:56.919Z,68.13
2019-02-06T11:51:56.885Z,68.34
2019-02-06T11:52:56.887Z,67.82
2019-02-06T11:53:56.871Z,67.72
2019-02-06T11:54:56.864Z,67.82
2019-02-06T11:55:56.852Z,67.82
2019-02-06T11:56:56.840Z,67.00
2019-02-06T11:57:56.813Z,67.30
2019-02-06T11:58:56.812Z,67.30
2019-02-06T11:59:56.794Z,67.93
2019-02-06T12:00:56.845Z,67.61
2019-02-06T12:01:56.793Z,67.51
2019-02-06T12:02:56.760Z,67.41
2019-02-06T12:03:56.758Z,67.82
2019-02-06T12:04:56.737Z,68.10
2019-02-06T12:05:56.749Z,68.30
2019-02-06T12:06:56.707Z,67.93
2019-02-06T12:07:56.682Z,67.41
2019-02-06T12:08:56.713Z,67.82
2019-02-06T12:09:56.718Z,67.48
2019-02-06T12:10:56.741Z,67.51
2019-02-06T12:11:56.660Z,67.51
2019-02-06T12:12:56.674Z,67.41
2019-02-06T12:13:56.638Z,67.82
2019-02-06T12:14:56.612Z,67.79
2019-02-06T12:15:56.671Z,67.69
2019-02-06T12:16:56.613Z,67.48
2019-02-06T12:17:56.598Z,68.13
2019-02-06T12:18:56.576Z,68.13
2019-02-06T12:19:56.551Z,68.82
2019-02-06T12:20:56.593Z,68.82
2019-02-06T12:21:56.562Z,68.62
2019-02-06T12:22:56.573Z,68.62
2019-02-06T12:23:56.643Z,68.72
2019-02-06T12:24:56.537Z,68.62
2019-02-06T12:25:56.556Z,68.21
2019-02-06T12:26:56.519Z,68.93
2019-02-06T12:27:56.491Z,69.03
2019-02-06T12:28:56.500Z,68.72
2019-02-06T12:29:56.494Z,68.93
2019-02-06T12:30:56.491Z,68.41
2019-02-06T12:31:56.479Z,68.93
2019-02-06T12:32:56.503Z,68.72
2019-02-06T12:33:56.446Z,68.93
2019-02-06T12:34:56.405Z,68.79
2019-02-06T12:35:56.410Z,69.03
2019-02-06T12:36:56.390Z,69.24
2019-02-06T12:37:56.435Z,69.34
2019-02-06T12:38:56.368Z,69.41
2019-02-06T12:39:56.357Z,69.24
2019-02-06T12:40:56.342Z,69.00
2019-02-06T12:41:56.382Z,69.34
2019-02-06T12:42:56.319Z,69.44
2019-02-06T12:43:56.330Z,69.20
2019-02-06T12:44:58.974Z,69.34
2019-02-06T12:45:56.278Z,69.10
2019-02-06T12:46:56.617Z,69.41
2019-02-06T12:47:56.268Z,70.23
2019-02-06T12:48:56.279Z,69.82
2019-02-06T12:49:56.227Z,70.34
2019-02-06T12:50:56.220Z,70.34
2019-02-06T12:51:56.257Z,70.86
2019-02-06T12:52:57.485Z,70.86
2019-02-06T12:53:56.214Z,70.86